sensor_id;sensor_type;location;lat;lon;timestamp;temperature;humidity
64796;DHT22;51229;51.980;6.722;2022-12-31T00:01:52;8.00;99.90
64796;DHT22;51229;51.980;6.722;2022-12-31T00:04:18;7.80;99.90
64796;DHT22;51229;51.980;6.722;2022-12-31T00:06:44;8.00;99.90
64796;DHT22;51229;51.980;6.722;2022-12-31T00:09:10;8.10;99.90
64796;DHT22;51229;51.980;6.722;2022-12-31T00:11:36;8.10;99.90
64796;DHT22;51229;51.980;6.722;2022-12-31T00:14:03;8.10;99.90
64796;DHT22;51229;51.980;6.722;2022-12-31T00:16:34;8.20;99.90
64796;DHT22;51229;51.980;6.722;2022-12-31T00:19:04;8.10;99.90
64796;DHT22;51229;51.980;6.722;2022-12-31T00:21:31;8.00;99.90
64796;DHT22;51229;51.980;6.722;2022-12-31T00:23:58;8.20;99.90
64796;DHT22;51229;51.980;6.722;2022-12-31T00:26:27;8.20;99.90
64796;DHT22;51229;51.980;6.722;2022-12-31T00:28:55;8.00;99.90
64796;DHT22;51229;51.980;6.722;2022-12-31T00:31:23;7.80;99.90
64796;DHT22;51229;51.980;6.722;2022-12-31T00:33:50;8.00;99.90
64796;DHT22;51229;51.980;6.722;2022-12-31T00:36:22;8.00;99.90
64796;DHT22;51229;51.980;6.722;2022-12-31T00:38:49;8.10;99.90
64796;DHT22;51229;51.980;6.722;2022-12-31T00:41:16;8.30;99.90
64796;DHT22;51229;51.980;6.722;2022-12-31T00:43:43;8.40;99.90
64796;DHT22;51229;51.980;6.722;2022-12-31T00:46:10;8.30;99.90
64796;DHT22;51229;51.980;6.722;2022-12-31T00:48:36;8.20;99.90
64796;DHT22;51229;51.980;6.722;2022-12-31T00:51:05;7.90;99.90
64796;DHT22;51229;51.980;6.722;2022-12-31T00:53:32;7.80;99.90
64796;DHT22;51229;51.980;6.722;2022-12-31T00:55:59;8.00;99.90
64796;DHT22;51229;51.980;6.722;2022-12-31T00:58:26;8.20;99.90
64796;DHT22;51229;51.980;6.722;2022-12-31T01:00:51;8.20;99.90
64796;DHT22;51229;51.980;6.722;2022-12-31T01:03:17;8.20;99.90
64796;DHT22;51229;51.980;6.722;2022-12-31T01:05:43;8.00;99.90
64796;DHT22;51229;51.980;6.722;2022-12-31T01:08:08;8.10;99.90
64796;DHT22;51229;51.980;6.722;2022-12-31T01:10:34;8.20;99.90
64796;DHT22;51229;51.980;6.722;2022-12-31T01:13:18;8.10;99.90
64796;DHT22;51229;51.980;6.722;2022-12-31T01:15:44;8.30;99.90
64796;DHT22;51229;51.980;6.722;2022-12-31T01:18:10;8.30;99.90
64796;DHT22;51229;51.980;6.722;2022-12-31T01:20:39;8.30;99.90
64796;DHT22;51229;51.980;6.722;2022-12-31T01:23:06;8.30;99.90
64796;DHT22;51229;51.980;6.722;2022-12-31T01:25:37;8.20;99.90
64796;DHT22;51229;51.980;6.722;2022-12-31T01:28:04;8.20;99.90
64796;DHT22;51229;51.980;6.722;2022-12-31T01:30:31;8.20;99.90
64796;DHT22;51229;51.980;6.722;2022-12-31T01:32:56;8.10;99.90
64796;DHT22;51229;51.980;6.722;2022-12-31T01:35:23;8.20;99.90
64796;DHT22;51229;51.980;6.722;2022-12-31T01:37:49;8.30;99.90
64796;DHT22;51229;51.980;6.722;2022-12-31T01:40:15;8.20;99.90
64796;DHT22;51229;51.980;6.722;2022-12-31T01:42:40;8.30;99.90
64796;DHT22;51229;51.980;6.722;2022-12-31T01:45:11;8.10;99.90
64796;DHT22;51229;51.980;6.722;2022-12-31T01:47:45;8.40;99.90
64796;DHT22;51229;51.980;6.722;2022-12-31T01:50:26;8.30;99.90
64796;DHT22;51229;51.980;6.722;2022-12-31T01:52:57;8.30;99.90
64796;DHT22;51229;51.980;6.722;2022-12-31T01:55:38;8.50;99.90
64796;DHT22;51229;51.980;6.722;2022-12-31T01:58:14;8.00;99.90
64796;DHT22;51229;51.980;6.722;2022-12-31T02:00:40;8.00;99.90
64796;DHT22;51229;51.980;6.722;2022-12-31T02:03:06;7.90;99.90
64796;DHT22;51229;51.980;6.722;2022-12-31T02:05:50;7.70;99.90
64796;DHT22;51229;51.980;6.722;2022-12-31T02:08:17;8.10;99.90
64796;DHT22;51229;51.980;6.722;2022-12-31T02:10:43;8.20;99.90
64796;DHT22;51229;51.980;6.722;2022-12-31T02:13:09;8.10;99.90
64796;DHT22;51229;51.980;6.722;2022-12-31T02:31:59;7.70;99.90
64796;DHT22;51229;51.980;6.722;2022-12-31T02:34:35;7.60;99.90
64796;DHT22;51229;51.980;6.722;2022-12-31T02:37:05;7.70;99.90
64796;DHT22;51229;51.980;6.722;2022-12-31T02:39:33;7.70;99.90
64796;DHT22;51229;51.980;6.722;2022-12-31T02:42:00;7.60;99.90
64796;DHT22;51229;51.980;6.722;2022-12-31T02:52:52;7.60;99.90
64796;DHT22;51229;51.980;6.722;2022-12-31T02:55:24;7.60;99.90
64796;DHT22;51229;51.980;6.722;2022-12-31T02:57:58;7.60;99.90
64796;DHT22;51229;51.980;6.722;2022-12-31T03:00:24;7.50;99.90
64796;DHT22;51229;51.980;6.722;2022-12-31T03:03:09;7.70;99.90
64796;DHT22;51229;51.980;6.722;2022-12-31T03:05:39;7.70;99.90
64796;DHT22;51229;51.980;6.722;2022-12-31T03:08:06;7.70;99.90
64796;DHT22;51229;51.980;6.722;2022-12-31T03:10:32;7.60;99.90
64796;DHT22;51229;51.980;6.722;2022-12-31T03:12:57;7.60;99.90
64796;DHT22;51229;51.980;6.722;2022-12-31T03:15:31;7.60;99.90
64796;DHT22;51229;51.980;6.722;2022-12-31T03:20:27;7.60;99.90
64796;DHT22;51229;51.980;6.722;2022-12-31T03:23:20;7.60;99.90
64796;DHT22;51229;51.980;6.722;2022-12-31T03:25:47;7.60;99.90
64796;DHT22;51229;51.980;6.722;2022-12-31T03:28:15;7.60;99.90
64796;DHT22;51229;51.980;6.722;2022-12-31T03:30:44;7.60;99.90
64796;DHT22;51229;51.980;6.722;2022-12-31T03:33:10;7.60;99.90
64796;DHT22;51229;51.980;6.722;2022-12-31T03:35:37;7.50;99.90
64796;DHT22;51229;51.980;6.722;2022-12-31T03:38:04;7.60;99.90
64796;DHT22;51229;51.980;6.722;2022-12-31T03:40:31;7.50;99.90
64796;DHT22;51229;51.980;6.722;2022-12-31T03:42:58;7.50;99.90
64796;DHT22;51229;51.980;6.722;2022-12-31T03:45:24;7.50;99.90
64796;DHT22;51229;51.980;6.722;2022-12-31T03:47:50;7.50;99.90
64796;DHT22;51229;51.980;6.722;2022-12-31T03:50:17;7.50;99.90
64796;DHT22;51229;51.980;6.722;2022-12-31T03:52:43;7.50;99.90
64796;DHT22;51229;51.980;6.722;2022-12-31T03:55:09;7.50;99.90
64796;DHT22;51229;51.980;6.722;2022-12-31T03:57:36;7.40;99.90
64796;DHT22;51229;51.980;6.722;2022-12-31T04:00:04;7.50;99.90
64796;DHT22;51229;51.980;6.722;2022-12-31T04:02:30;7.40;99.90
64796;DHT22;51229;51.980;6.722;2022-12-31T04:04:56;7.50;99.90
64796;DHT22;51229;51.980;6.722;2022-12-31T04:07:22;7.50;99.90
64796;DHT22;51229;51.980;6.722;2022-12-31T04:09:48;7.40;99.90
64796;DHT22;51229;51.980;6.722;2022-12-31T04:12:14;7.40;99.90
64796;DHT22;51229;51.980;6.722;2022-12-31T04:14:39;7.40;99.90
64796;DHT22;51229;51.980;6.722;2022-12-31T04:17:05;7.40;99.90
64796;DHT22;51229;51.980;6.722;2022-12-31T04:19:31;7.40;99.90
64796;DHT22;51229;51.980;6.722;2022-12-31T04:21:56;7.50;99.90
64796;DHT22;51229;51.980;6.722;2022-12-31T04:24:22;7.50;99.90
64796;DHT22;51229;51.980;6.722;2022-12-31T04:26:48;7.40;99.90
64796;DHT22;51229;51.980;6.722;2022-12-31T04:29:14;7.50;99.90
64796;DHT22;51229;51.980;6.722;2022-12-31T04:31:40;7.50;99.90
64796;DHT22;51229;51.980;6.722;2022-12-31T04:34:05;7.50;99.90
64796;DHT22;51229;51.980;6.722;2022-12-31T04:36:31;7.50;99.90
64796;DHT22;51229;51.980;6.722;2022-12-31T04:38:57;7.50;99.90
64796;DHT22;51229;51.980;6.722;2022-12-31T04:41:22;7.50;99.90
64796;DHT22;51229;51.980;6.722;2022-12-31T04:43:56;7.50;99.90
64796;DHT22;51229;51.980;6.722;2022-12-31T04:46:28;7.50;99.90
64796;DHT22;51229;51.980;6.722;2022-12-31T04:48:55;7.50;99.90
64796;DHT22;51229;51.980;6.722;2022-12-31T04:51:21;7.40;99.90
64796;DHT22;51229;51.980;6.722;2022-12-31T04:53:48;7.30;99.90
64796;DHT22;51229;51.980;6.722;2022-12-31T04:56:14;7.40;99.90
64796;DHT22;51229;51.980;6.722;2022-12-31T04:58:40;7.10;99.90
64796;DHT22;51229;51.980;6.722;2022-12-31T05:01:07;7.30;99.90
64796;DHT22;51229;51.980;6.722;2022-12-31T05:03:33;7.40;99.90
64796;DHT22;51229;51.980;6.722;2022-12-31T05:06:15;7.30;99.90
64796;DHT22;51229;51.980;6.722;2022-12-31T05:08:42;7.40;99.90
64796;DHT22;51229;51.980;6.722;2022-12-31T05:11:08;7.50;99.90
64796;DHT22;51229;51.980;6.722;2022-12-31T05:13:35;7.50;99.90
64796;DHT22;51229;51.980;6.722;2022-12-31T05:16:02;7.60;99.90
64796;DHT22;51229;51.980;6.722;2022-12-31T05:18:28;7.50;99.90
64796;DHT22;51229;51.980;6.722;2022-12-31T05:20:54;7.50;99.90
64796;DHT22;51229;51.980;6.722;2022-12-31T05:23:20;7.50;99.90
64796;DHT22;51229;51.980;6.722;2022-12-31T05:25:46;7.50;99.90
64796;DHT22;51229;51.980;6.722;2022-12-31T05:28:12;7.50;99.90
64796;DHT22;51229;51.980;6.722;2022-12-31T05:30:37;7.50;99.90
64796;DHT22;51229;51.980;6.722;2022-12-31T05:33:03;7.40;99.90
64796;DHT22;51229;51.980;6.722;2022-12-31T05:35:29;7.50;99.90
64796;DHT22;51229;51.980;6.722;2022-12-31T05:37:55;7.60;99.90
64796;DHT22;51229;51.980;6.722;2022-12-31T05:40:20;7.50;99.90
64796;DHT22;51229;51.980;6.722;2022-12-31T05:42:48;7.40;99.90
64796;DHT22;51229;51.980;6.722;2022-12-31T05:45:13;7.50;99.90
64796;DHT22;51229;51.980;6.722;2022-12-31T05:47:40;7.50;99.90
64796;DHT22;51229;51.980;6.722;2022-12-31T05:50:11;7.50;99.90
64796;DHT22;51229;51.980;6.722;2022-12-31T05:52:37;7.50;99.90
64796;DHT22;51229;51.980;6.722;2022-12-31T05:55:04;7.50;99.90
64796;DHT22;51229;51.980;6.722;2022-12-31T05:57:29;7.50;99.90
64796;DHT22;51229;51.980;6.722;2022-12-31T05:59:55;7.60;99.90
64796;DHT22;51229;51.980;6.722;2022-12-31T06:02:21;7.50;99.90
64796;DHT22;51229;51.980;6.722;2022-12-31T06:04:47;7.60;99.90
64796;DHT22;51229;51.980;6.722;2022-12-31T06:07:13;7.60;99.90
64796;DHT22;51229;51.980;6.722;2022-12-31T06:09:39;7.60;99.90
64796;DHT22;51229;51.980;6.722;2022-12-31T06:12:05;7.60;99.90
64796;DHT22;51229;51.980;6.722;2022-12-31T06:14:32;7.50;99.90
64796;DHT22;51229;51.980;6.722;2022-12-31T06:16:58;7.60;99.90
64796;DHT22;51229;51.980;6.722;2022-12-31T06:19:24;7.60;99.90
64796;DHT22;51229;51.980;6.722;2022-12-31T06:21:50;7.60;99.90
64796;DHT22;51229;51.980;6.722;2022-12-31T06:24:15;7.60;99.90
64796;DHT22;51229;51.980;6.722;2022-12-31T06:26:41;7.60;99.90
64796;DHT22;51229;51.980;6.722;2022-12-31T06:29:08;7.60;99.90
64796;DHT22;51229;51.980;6.722;2022-12-31T06:31:36;7.70;99.90
64796;DHT22;51229;51.980;6.722;2022-12-31T06:34:01;7.70;99.90
64796;DHT22;51229;51.980;6.722;2022-12-31T06:36:27;7.50;99.90
64796;DHT22;51229;51.980;6.722;2022-12-31T06:38:53;7.70;99.90
64796;DHT22;51229;51.980;6.722;2022-12-31T06:41:20;7.70;99.90
64796;DHT22;51229;51.980;6.722;2022-12-31T06:43:46;7.70;99.90
64796;DHT22;51229;51.980;6.722;2022-12-31T06:46:15;7.70;99.90
64796;DHT22;51229;51.980;6.722;2022-12-31T06:48:41;7.70;99.90
64796;DHT22;51229;51.980;6.722;2022-12-31T06:51:14;7.80;99.90
64796;DHT22;51229;51.980;6.722;2022-12-31T06:53:40;7.80;99.90
64796;DHT22;51229;51.980;6.722;2022-12-31T06:56:17;7.80;99.90
64796;DHT22;51229;51.980;6.722;2022-12-31T06:58:43;7.80;99.90
64796;DHT22;51229;51.980;6.722;2022-12-31T07:01:28;7.80;99.90
64796;DHT22;51229;51.980;6.722;2022-12-31T07:04:04;7.70;99.90
64796;DHT22;51229;51.980;6.722;2022-12-31T07:06:43;7.90;99.90
64796;DHT22;51229;51.980;6.722;2022-12-31T07:09:37;7.90;99.90
64796;DHT22;51229;51.980;6.722;2022-12-31T07:14:48;7.90;99.90
64796;DHT22;51229;51.980;6.722;2022-12-31T07:20:11;8.00;99.90
64796;DHT22;51229;51.980;6.722;2022-12-31T07:22:37;8.10;99.90
64796;DHT22;51229;51.980;6.722;2022-12-31T07:25:04;8.40;99.90
64796;DHT22;51229;51.980;6.722;2022-12-31T07:28:13;8.30;99.90
64796;DHT22;51229;51.980;6.722;2022-12-31T07:31:03;8.50;99.90
64796;DHT22;51229;51.980;6.722;2022-12-31T07:33:57;8.60;99.90
64796;DHT22;51229;51.980;6.722;2022-12-31T07:47:01;8.60;99.90
64796;DHT22;51229;51.980;6.722;2022-12-31T07:49:29;8.60;99.90
64796;DHT22;51229;51.980;6.722;2022-12-31T07:51:58;8.80;99.90
64796;DHT22;51229;51.980;6.722;2022-12-31T07:54:24;8.90;99.90
64796;DHT22;51229;51.980;6.722;2022-12-31T07:56:50;8.90;99.90
64796;DHT22;51229;51.980;6.722;2022-12-31T08:05:17;9.10;99.90
64796;DHT22;51229;51.980;6.722;2022-12-31T08:07:47;9.00;99.90
64796;DHT22;51229;51.980;6.722;2022-12-31T08:12:57;9.10;99.90
64796;DHT22;51229;51.980;6.722;2022-12-31T08:15:25;9.40;99.90
64796;DHT22;51229;51.980;6.722;2022-12-31T08:17:51;9.30;99.90
64796;DHT22;51229;51.980;6.722;2022-12-31T08:20:17;9.00;99.90
64796;DHT22;51229;51.980;6.722;2022-12-31T08:23:00;9.20;99.90
64796;DHT22;51229;51.980;6.722;2022-12-31T08:28:52;9.30;99.90
64796;DHT22;51229;51.980;6.722;2022-12-31T08:37:11;9.70;99.90
64796;DHT22;51229;51.980;6.722;2022-12-31T08:45:02;9.90;99.90
64796;DHT22;51229;51.980;6.722;2022-12-31T08:47:59;9.40;99.90
64796;DHT22;51229;51.980;6.722;2022-12-31T08:50:26;9.90;99.90
64796;DHT22;51229;51.980;6.722;2022-12-31T08:52:52;9.70;99.90
64796;DHT22;51229;51.980;6.722;2022-12-31T08:55:18;9.90;99.90
64796;DHT22;51229;51.980;6.722;2022-12-31T08:58:25;9.90;99.90
64796;DHT22;51229;51.980;6.722;2022-12-31T09:00:56;9.90;99.90
64796;DHT22;51229;51.980;6.722;2022-12-31T09:03:38;9.80;99.90
64796;DHT22;51229;51.980;6.722;2022-12-31T09:11:58;9.70;99.90
64796;DHT22;51229;51.980;6.722;2022-12-31T09:17:24;9.20;99.90
64796;DHT22;51229;51.980;6.722;2022-12-31T09:19:51;8.90;99.90
64796;DHT22;51229;51.980;6.722;2022-12-31T09:22:17;8.80;99.90
64796;DHT22;51229;51.980;6.722;2022-12-31T09:24:43;8.70;99.90
64796;DHT22;51229;51.980;6.722;2022-12-31T09:27:17;8.80;99.90
64796;DHT22;51229;51.980;6.722;2022-12-31T09:30:00;8.80;99.90
64796;DHT22;51229;51.980;6.722;2022-12-31T09:35:14;8.80;99.90
64796;DHT22;51229;51.980;6.722;2022-12-31T09:37:47;8.70;99.90
64796;DHT22;51229;51.980;6.722;2022-12-31T09:40:32;8.90;99.90
64796;DHT22;51229;51.980;6.722;2022-12-31T09:51:29;9.10;99.90
64796;DHT22;51229;51.980;6.722;2022-12-31T09:54:24;9.20;99.90
64796;DHT22;51229;51.980;6.722;2022-12-31T10:03:06;9.70;99.90
64796;DHT22;51229;51.980;6.722;2022-12-31T10:17:29;10.10;99.90
64796;DHT22;51229;51.980;6.722;2022-12-31T10:20:32;9.90;99.90
64796;DHT22;51229;51.980;6.722;2022-12-31T10:28:39;10.10;99.90
64796;DHT22;51229;51.980;6.722;2022-12-31T10:39:49;9.90;99.90
64796;DHT22;51229;51.980;6.722;2022-12-31T10:42:32;9.90;99.90
64796;DHT22;51229;51.980;6.722;2022-12-31T10:59:59;9.90;99.90
64796;DHT22;51229;51.980;6.722;2022-12-31T11:10:55;10.20;99.90
64796;DHT22;51229;51.980;6.722;2022-12-31T11:19:18;10.50;99.90
64796;DHT22;51229;51.980;6.722;2022-12-31T11:24:57;10.40;99.90
64796;DHT22;51229;51.980;6.722;2022-12-31T11:33:59;10.50;99.90
64796;DHT22;51229;51.980;6.722;2022-12-31T11:39:24;10.90;99.90
64796;DHT22;51229;51.980;6.722;2022-12-31T11:42:19;10.80;99.90
64796;DHT22;51229;51.980;6.722;2022-12-31T11:47:42;11.00;99.90
64796;DHT22;51229;51.980;6.722;2022-12-31T11:58:19;11.00;99.90
64796;DHT22;51229;51.980;6.722;2022-12-31T12:01:10;11.00;99.90
64796;DHT22;51229;51.980;6.722;2022-12-31T12:03:37;10.90;99.90
64796;DHT22;51229;51.980;6.722;2022-12-31T12:06:13;11.00;99.90
64796;DHT22;51229;51.980;6.722;2022-12-31T12:08:41;11.30;99.90
64796;DHT22;51229;51.980;6.722;2022-12-31T12:11:26;11.20;99.90
64796;DHT22;51229;51.980;6.722;2022-12-31T12:13:52;11.10;99.90
64796;DHT22;51229;51.980;6.722;2022-12-31T12:16:19;11.20;99.90
64796;DHT22;51229;51.980;6.722;2022-12-31T12:19:00;11.30;99.90
64796;DHT22;51229;51.980;6.722;2022-12-31T12:21:28;11.30;99.90
64796;DHT22;51229;51.980;6.722;2022-12-31T12:24:13;11.30;99.90
64796;DHT22;51229;51.980;6.722;2022-12-31T12:26:42;11.20;99.90
64796;DHT22;51229;51.980;6.722;2022-12-31T12:29:27;11.20;99.90
64796;DHT22;51229;51.980;6.722;2022-12-31T12:32:05;11.30;99.90
64796;DHT22;51229;51.980;6.722;2022-12-31T12:34:35;11.30;99.90
64796;DHT22;51229;51.980;6.722;2022-12-31T12:37:01;11.50;99.90
64796;DHT22;51229;51.980;6.722;2022-12-31T12:39:30;11.50;99.90
64796;DHT22;51229;51.980;6.722;2022-12-31T12:42:09;11.40;99.90
64796;DHT22;51229;51.980;6.722;2022-12-31T12:44:35;11.20;99.90
64796;DHT22;51229;51.980;6.722;2022-12-31T12:47:02;11.00;99.90
64796;DHT22;51229;51.980;6.722;2022-12-31T12:49:39;11.20;99.90
64796;DHT22;51229;51.980;6.722;2022-12-31T12:55:10;11.00;99.90
64796;DHT22;51229;51.980;6.722;2022-12-31T13:00:22;10.90;99.90
64796;DHT22;51229;51.980;6.722;2022-12-31T13:13:39;10.40;99.90
64796;DHT22;51229;51.980;6.722;2022-12-31T13:21:41;10.20;99.90
64796;DHT22;51229;51.980;6.722;2022-12-31T13:24:30;10.30;99.90
64796;DHT22;51229;51.980;6.722;2022-12-31T13:27:07;10.20;99.90
64796;DHT22;51229;51.980;6.722;2022-12-31T13:29:36;10.20;99.90
64796;DHT22;51229;51.980;6.722;2022-12-31T13:32:06;10.30;99.90
64796;DHT22;51229;51.980;6.722;2022-12-31T13:34:37;10.30;99.90
64796;DHT22;51229;51.980;6.722;2022-12-31T13:39:45;10.30;99.90
64796;DHT22;51229;51.980;6.722;2022-12-31T13:42:21;10.40;99.90
64796;DHT22;51229;51.980;6.722;2022-12-31T13:44:58;10.60;99.90
64796;DHT22;51229;51.980;6.722;2022-12-31T13:47:36;10.70;99.90
64796;DHT22;51229;51.980;6.722;2022-12-31T13:50:19;10.60;99.90
64796;DHT22;51229;51.980;6.722;2022-12-31T13:55:52;10.80;99.90
64796;DHT22;51229;51.980;6.722;2022-12-31T13:58:27;10.80;99.90
64796;DHT22;51229;51.980;6.722;2022-12-31T14:01:13;10.70;99.90
64796;DHT22;51229;51.980;6.722;2022-12-31T14:03:52;10.80;99.90
64796;DHT22;51229;51.980;6.722;2022-12-31T14:09:16;10.50;99.90
64796;DHT22;51229;51.980;6.722;2022-12-31T14:11:53;10.40;99.90
64796;DHT22;51229;51.980;6.722;2022-12-31T14:14:30;10.40;99.90
64796;DHT22;51229;51.980;6.722;2022-12-31T14:25:25;10.40;99.90
64796;DHT22;51229;51.980;6.722;2022-12-31T14:27:54;10.40;99.90
64796;DHT22;51229;51.980;6.722;2022-12-31T14:30:35;10.40;99.90
64796;DHT22;51229;51.980;6.722;2022-12-31T14:33:16;10.60;99.90
64796;DHT22;51229;51.980;6.722;2022-12-31T14:44:42;10.60;99.90
64796;DHT22;51229;51.980;6.722;2022-12-31T14:58:00;10.80;99.90
64796;DHT22;51229;51.980;6.722;2022-12-31T15:00:38;10.90;99.90
64796;DHT22;51229;51.980;6.722;2022-12-31T15:05:36;10.90;99.90
64796;DHT22;51229;51.980;6.722;2022-12-31T15:08:20;11.30;99.90
64796;DHT22;51229;51.980;6.722;2022-12-31T15:14:16;10.90;99.90
64796;DHT22;51229;51.980;6.722;2022-12-31T15:22:53;10.90;99.90
64796;DHT22;51229;51.980;6.722;2022-12-31T15:25:31;11.00;99.90
64796;DHT22;51229;51.980;6.722;2022-12-31T15:28:02;11.10;99.90
64796;DHT22;51229;51.980;6.722;2022-12-31T15:33:01;11.00;99.90
64796;DHT22;51229;51.980;6.722;2022-12-31T15:35:44;11.10;99.90
64796;DHT22;51229;51.980;6.722;2022-12-31T15:40:49;11.20;99.90
64796;DHT22;51229;51.980;6.722;2022-12-31T15:45:48;11.10;99.90
64796;DHT22;51229;51.980;6.722;2022-12-31T15:48:42;11.10;99.90
64796;DHT22;51229;51.980;6.722;2022-12-31T15:51:16;10.90;99.90
64796;DHT22;51229;51.980;6.722;2022-12-31T15:53:44;11.00;99.90
64796;DHT22;51229;51.980;6.722;2022-12-31T15:56:38;11.10;99.90
64796;DHT22;51229;51.980;6.722;2022-12-31T15:59:11;10.90;99.90
64796;DHT22;51229;51.980;6.722;2022-12-31T16:01:40;10.80;99.90
64796;DHT22;51229;51.980;6.722;2022-12-31T16:04:17;11.10;99.90
64796;DHT22;51229;51.980;6.722;2022-12-31T16:06:44;11.10;99.90
64796;DHT22;51229;51.980;6.722;2022-12-31T16:09:37;11.00;99.90
64796;DHT22;51229;51.980;6.722;2022-12-31T16:12:08;11.10;99.90
64796;DHT22;51229;51.980;6.722;2022-12-31T16:14:37;11.10;99.90
64796;DHT22;51229;51.980;6.722;2022-12-31T16:17:31;11.00;99.90
64796;DHT22;51229;51.980;6.722;2022-12-31T16:19:58;10.90;99.90
64796;DHT22;51229;51.980;6.722;2022-12-31T16:22:36;10.80;99.90
64796;DHT22;51229;51.980;6.722;2022-12-31T16:25:05;10.90;99.90
64796;DHT22;51229;51.980;6.722;2022-12-31T16:27:33;10.80;99.90
64796;DHT22;51229;51.980;6.722;2022-12-31T16:32:48;10.80;99.90
64796;DHT22;51229;51.980;6.722;2022-12-31T16:35:23;10.80;99.90
64796;DHT22;51229;51.980;6.722;2022-12-31T16:38:20;10.80;99.90
64796;DHT22;51229;51.980;6.722;2022-12-31T16:41:06;10.90;99.90
64796;DHT22;51229;51.980;6.722;2022-12-31T16:43:37;10.90;99.90
64796;DHT22;51229;51.980;6.722;2022-12-31T16:46:24;10.80;99.90
64796;DHT22;51229;51.980;6.722;2022-12-31T16:48:57;10.80;99.90
64796;DHT22;51229;51.980;6.722;2022-12-31T16:51:26;10.70;99.90
64796;DHT22;51229;51.980;6.722;2022-12-31T16:53:53;10.80;99.90
64796;DHT22;51229;51.980;6.722;2022-12-31T16:56:28;10.80;99.90
64796;DHT22;51229;51.980;6.722;2022-12-31T16:59:21;10.80;99.90
64796;DHT22;51229;51.980;6.722;2022-12-31T17:01:48;10.70;99.90
64796;DHT22;51229;51.980;6.722;2022-12-31T17:04:17;10.70;99.90
64796;DHT22;51229;51.980;6.722;2022-12-31T17:06:44;10.60;99.90
64796;DHT22;51229;51.980;6.722;2022-12-31T17:09:18;10.50;99.90
64796;DHT22;51229;51.980;6.722;2022-12-31T17:14:17;10.70;99.90
64796;DHT22;51229;51.980;6.722;2022-12-31T17:17:02;10.60;99.90
64796;DHT22;51229;51.980;6.722;2022-12-31T17:22:08;10.40;99.90
64796;DHT22;51229;51.980;6.722;2022-12-31T17:24:35;10.60;99.90
64796;DHT22;51229;51.980;6.722;2022-12-31T17:27:04;10.60;99.90
64796;DHT22;51229;51.980;6.722;2022-12-31T17:29:30;10.70;99.90
64796;DHT22;51229;51.980;6.722;2022-12-31T17:32:05;10.70;99.90
64796;DHT22;51229;51.980;6.722;2022-12-31T17:34:49;10.80;99.90
64796;DHT22;51229;51.980;6.722;2022-12-31T17:37:25;10.70;99.90
64796;DHT22;51229;51.980;6.722;2022-12-31T17:39:52;10.70;99.90
64796;DHT22;51229;51.980;6.722;2022-12-31T17:42:37;10.60;99.90
64796;DHT22;51229;51.980;6.722;2022-12-31T17:45:14;10.50;99.90
64796;DHT22;51229;51.980;6.722;2022-12-31T17:47:45;10.60;99.90
64796;DHT22;51229;51.980;6.722;2022-12-31T17:50:18;10.60;99.90
64796;DHT22;51229;51.980;6.722;2022-12-31T17:52:44;10.70;99.90
64796;DHT22;51229;51.980;6.722;2022-12-31T17:55:10;10.50;99.90
64796;DHT22;51229;51.980;6.722;2022-12-31T17:57:36;10.60;99.90
64796;DHT22;51229;51.980;6.722;2022-12-31T18:00:06;10.60;99.90
64796;DHT22;51229;51.980;6.722;2022-12-31T18:02:38;10.80;99.90
64796;DHT22;51229;51.980;6.722;2022-12-31T18:05:13;10.80;99.90
64796;DHT22;51229;51.980;6.722;2022-12-31T18:07:39;10.70;99.90
64796;DHT22;51229;51.980;6.722;2022-12-31T18:10:05;10.60;99.90
64796;DHT22;51229;51.980;6.722;2022-12-31T18:12:31;10.60;99.90
64796;DHT22;51229;51.980;6.722;2022-12-31T18:14:57;10.60;99.90
64796;DHT22;51229;51.980;6.722;2022-12-31T18:17:24;10.70;99.90
64796;DHT22;51229;51.980;6.722;2022-12-31T18:19:50;10.60;99.90
64796;DHT22;51229;51.980;6.722;2022-12-31T18:22:16;10.50;99.90
64796;DHT22;51229;51.980;6.722;2022-12-31T18:24:43;10.60;99.90
64796;DHT22;51229;51.980;6.722;2022-12-31T18:27:16;10.90;99.90
64796;DHT22;51229;51.980;6.722;2022-12-31T18:29:43;10.80;99.90
64796;DHT22;51229;51.980;6.722;2022-12-31T18:32:25;10.80;99.90
64796;DHT22;51229;51.980;6.722;2022-12-31T18:34:51;10.80;99.90
64796;DHT22;51229;51.980;6.722;2022-12-31T18:37:18;10.60;99.90
64796;DHT22;51229;51.980;6.722;2022-12-31T18:39:44;10.60;99.90
64796;DHT22;51229;51.980;6.722;2022-12-31T18:42:17;10.70;99.90
64796;DHT22;51229;51.980;6.722;2022-12-31T18:44:44;10.80;99.90
64796;DHT22;51229;51.980;6.722;2022-12-31T18:47:15;10.70;99.90
64796;DHT22;51229;51.980;6.722;2022-12-31T18:49:41;10.80;99.90
64796;DHT22;51229;51.980;6.722;2022-12-31T18:52:25;10.70;99.90
64796;DHT22;51229;51.980;6.722;2022-12-31T18:54:51;10.80;99.90
64796;DHT22;51229;51.980;6.722;2022-12-31T18:57:16;10.70;99.90
64796;DHT22;51229;51.980;6.722;2022-12-31T18:59:42;10.60;99.90
64796;DHT22;51229;51.980;6.722;2022-12-31T19:02:18;10.70;99.90
64796;DHT22;51229;51.980;6.722;2022-12-31T19:04:45;10.60;99.90
64796;DHT22;51229;51.980;6.722;2022-12-31T19:07:10;10.60;99.90
64796;DHT22;51229;51.980;6.722;2022-12-31T19:09:40;10.80;99.90
64796;DHT22;51229;51.980;6.722;2022-12-31T19:12:12;10.70;99.90
64796;DHT22;51229;51.980;6.722;2022-12-31T19:14:48;10.70;99.90
64796;DHT22;51229;51.980;6.722;2022-12-31T19:17:14;10.60;99.90
64796;DHT22;51229;51.980;6.722;2022-12-31T19:19:40;10.70;99.90
64796;DHT22;51229;51.980;6.722;2022-12-31T19:22:07;10.60;99.90
64796;DHT22;51229;51.980;6.722;2022-12-31T19:24:33;10.60;99.90
64796;DHT22;51229;51.980;6.722;2022-12-31T19:27:00;10.60;99.90
64796;DHT22;51229;51.980;6.722;2022-12-31T19:29:27;10.50;99.90
64796;DHT22;51229;51.980;6.722;2022-12-31T19:31:53;10.60;99.90
64796;DHT22;51229;51.980;6.722;2022-12-31T19:34:19;10.40;99.90
64796;DHT22;51229;51.980;6.722;2022-12-31T19:36:44;10.40;99.90
64796;DHT22;51229;51.980;6.722;2022-12-31T19:39:19;10.70;99.90
64796;DHT22;51229;51.980;6.722;2022-12-31T19:41:45;10.60;99.90
64796;DHT22;51229;51.980;6.722;2022-12-31T19:44:16;10.60;99.90
64796;DHT22;51229;51.980;6.722;2022-12-31T19:46:42;10.40;99.90
64796;DHT22;51229;51.980;6.722;2022-12-31T19:49:12;10.40;99.90
64796;DHT22;51229;51.980;6.722;2022-12-31T19:51:38;10.70;99.90
64796;DHT22;51229;51.980;6.722;2022-12-31T19:54:04;10.50;99.90
64796;DHT22;51229;51.980;6.722;2022-12-31T19:56:30;10.60;99.90
64796;DHT22;51229;51.980;6.722;2022-12-31T19:58:56;10.70;99.90
64796;DHT22;51229;51.980;6.722;2022-12-31T20:01:23;10.70;99.90
64796;DHT22;51229;51.980;6.722;2022-12-31T20:03:49;10.40;99.90
64796;DHT22;51229;51.980;6.722;2022-12-31T20:06:15;10.60;99.90
64796;DHT22;51229;51.980;6.722;2022-12-31T20:08:41;10.60;99.90
64796;DHT22;51229;51.980;6.722;2022-12-31T20:11:25;10.70;99.90
64796;DHT22;51229;51.980;6.722;2022-12-31T20:13:52;10.70;99.90
64796;DHT22;51229;51.980;6.722;2022-12-31T20:16:20;10.60;99.90
64796;DHT22;51229;51.980;6.722;2022-12-31T20:18:46;10.60;99.90
64796;DHT22;51229;51.980;6.722;2022-12-31T20:21:21;10.60;99.90